Time;durP1;ratioP1;P1;durP2;ratioP2;P2;SDS_P1;SDS_P2;PMS_P1;PMS_P2;Temp;Humidity;BMP_temperature;BMP_pressure;BME280_temperature;BME280_humidity;BME280_pressure;Samples;Min_cycle;Max_cycle;Signal;HPM_P1;HPM_P2
2022/06/17 00:01:37;;;;;;;3.53;2.80;;;;;;;;;;4994639;28;20340;-54
2022/06/17 00:04:03;;;;;;;4.70;3.17;;;;;;;;;;4994775;28;20194;-54
2022/06/17 00:06:32;;;;;;;3.30;2.80;;;;;;;;;;4994744;28;20202;-55
2022/06/17 00:08:58;;;;;;;3.77;2.83;;;;;;;;;;4994434;28;20234;-55
2022/06/17 00:11:25;;;;;;;3.27;2.97;;;;;;;;;;4994732;28;20615;-56
2022/06/17 00:13:51;;;;;;;2.83;2.57;;;;;;;;;;4994577;28;20759;-55
2022/06/17 00:16:20;;;;;;;4.70;3.47;;;;;;;;;;4994021;28;20209;-55
2022/06/17 00:18:46;;;;;;;3.93;3.10;;;;;;;;;;4994480;28;20229;-55
2022/06/17 00:21:16;;;;;;;4.10;3.50;;;;;;;;;;4994541;28;20233;-55
2022/06/17 00:23:42;;;;;;;3.83;3.43;;;;;;;;;;4992611;28;20209;-55
2022/06/17 00:26:08;;;;;;;3.60;3.30;;;;;;;;;;4993964;28;20218;-55
2022/06/17 00:28:34;;;;;;;4.20;3.70;;;;;;;;;;4994266;28;20262;-54
2022/06/17 00:31:00;;;;;;;4.30;3.50;;;;;;;;;;4994108;28;20270;-54
2022/06/17 00:33:28;;;;;;;4.67;3.40;;;;;;;;;;4994394;28;20201;-54
2022/06/17 00:35:55;;;;;;;3.57;3.13;;;;;;;;;;4994245;28;20205;-55
2022/06/17 00:38:23;;;;;;;5.27;3.70;;;;;;;;;;4994152;28;20217;-54
2022/06/17 00:40:50;;;;;;;4.90;3.47;;;;;;;;;;4994167;28;20233;-54
2022/06/17 00:43:22;;;;;;;3.83;3.43;;;;;;;;;;4994154;28;20206;-54
2022/06/17 00:45:53;;;;;;;4.03;3.10;;;;;;;;;;4994083;28;20255;-55
2022/06/17 00:48:22;;;;;;;3.97;3.40;;;;;;;;;;4993313;28;20252;-55
2022/06/17 00:50:52;;;;;;;4.73;3.53;;;;;;;;;;4994010;28;20202;-55
2022/06/17 00:53:20;;;;;;;4.23;3.37;;;;;;;;;;4994035;28;20210;-55
2022/06/17 00:55:49;;;;;;;4.60;3.60;;;;;;;;;;4993866;28;20657;-55
2022/06/17 00:58:17;;;;;;;4.00;3.60;;;;;;;;;;4993856;28;20206;-55
2022/06/17 01:00:43;;;;;;;4.00;3.47;;;;;;;;;;4993620;28;20198;-55
2022/06/17 01:03:13;;;;;;;3.63;3.27;;;;;;;;;;4994049;28;20202;-54
2022/06/17 01:05:41;;;;;;;5.37;3.67;;;;;;;;;;4993598;28;20644;-55
2022/06/17 01:08:13;;;;;;;4.13;3.47;;;;;;;;;;4993480;28;20241;-54
2022/06/17 01:10:40;;;;;;;6.53;3.80;;;;;;;;;;4993518;28;20207;-55
2022/06/17 01:13:08;;;;;;;5.90;3.77;;;;;;;;;;4993657;28;20245;-55
2022/06/17 01:15:35;;;;;;;3.57;3.27;;;;;;;;;;4993448;28;20198;-55
2022/06/17 01:18:01;;;;;;;5.20;3.30;;;;;;;;;;4993336;28;20213;-55
2022/06/17 01:20:29;;;;;;;4.77;3.90;;;;;;;;;;4993489;28;20657;-55
2022/06/17 01:22:58;;;;;;;5.30;3.83;;;;;;;;;;4993410;28;20206;-55
2022/06/17 01:25:26;;;;;;;5.73;3.50;;;;;;;;;;4993206;28;20249;-55
2022/06/17 01:27:52;;;;;;;4.10;3.60;;;;;;;;;;4993225;28;20233;-55
2022/06/17 01:30:20;;;;;;;3.70;3.40;;;;;;;;;;4993111;28;20252;-55
2022/06/17 01:32:49;;;;;;;4.40;3.90;;;;;;;;;;4993087;28;20229;-55
2022/06/17 01:35:15;;;;;;;4.00;3.60;;;;;;;;;;4993207;28;20198;-56
2022/06/17 01:37:41;;;;;;;4.10;3.70;;;;;;;;;;4993058;28;20194;-55
2022/06/17 01:40:09;;;;;;;4.37;3.97;;;;;;;;;;4992984;28;20293;-55
2022/06/17 01:42:36;;;;;;;3.73;3.40;;;;;;;;;;4993055;28;20206;-55
2022/06/17 01:45:02;;;;;;;5.13;3.90;;;;;;;;;;4992954;28;20201;-55
2022/06/17 01:47:30;;;;;;;4.27;3.87;;;;;;;;;;4992749;28;20222;-55
2022/06/17 01:49:58;;;;;;;4.00;3.50;;;;;;;;;;4992961;28;20209;-55
2022/06/17 01:52:26;;;;;;;4.50;4.10;;;;;;;;;;4992855;28;20206;-55
2022/06/17 01:54:53;;;;;;;4.60;4.20;;;;;;;;;;4992838;28;20199;-55
2022/06/17 01:57:22;;;;;;;4.60;3.93;;;;;;;;;;4992903;28;20249;-55
2022/06/17 01:59:51;;;;;;;9.57;4.80;;;;;;;;;;4992002;28;20245;-55
2022/06/17 02:02:18;;;;;;;5.60;3.93;;;;;;;;;;4992738;28;20194;-55
2022/06/17 02:04:45;;;;;;;6.43;4.10;;;;;;;;;;4992490;28;20198;-55
2022/06/17 02:07:14;;;;;;;5.23;4.00;;;;;;;;;;4992742;28;20202;-54
2022/06/17 02:09:40;;;;;;;6.10;4.10;;;;;;;;;;4992544;28;20202;-55
2022/06/17 02:12:07;;;;;;;3.97;3.63;;;;;;;;;;4992847;28;20202;-55
2022/06/17 02:14:34;;;;;;;4.60;4.00;;;;;;;;;;4992601;28;20217;-55
2022/06/17 02:17:01;;;;;;;6.73;3.83;;;;;;;;;;4992183;28;20202;-55
2022/06/17 02:19:28;;;;;;;4.07;3.70;;;;;;;;;;4992473;28;20198;-56
2022/06/17 02:21:58;;;;;;;4.40;4.00;;;;;;;;;;4992181;28;20205;-56
2022/06/17 02:24:25;;;;;;;4.97;4.13;;;;;;;;;;4992448;28;20202;-56
2022/06/17 02:26:52;;;;;;;4.53;4.00;;;;;;;;;;4992209;28;20222;-56
2022/06/17 02:29:18;;;;;;;4.57;4.03;;;;;;;;;;4992229;28;20226;-55
2022/06/17 02:31:45;;;;;;;4.33;3.93;;;;;;;;;;4992293;28;20212;-55
2022/06/17 02:34:13;;;;;;;5.83;3.90;;;;;;;;;;4992393;28;20672;-55
2022/06/17 02:36:42;;;;;;;4.83;4.40;;;;;;;;;;4992305;28;20668;-56
2022/06/17 02:39:10;;;;;;;4.70;4.30;;;;;;;;;;4992146;28;20716;-56
2022/06/17 02:41:36;;;;;;;5.47;4.70;;;;;;;;;;4992162;28;20653;-55
2022/06/17 02:44:05;;;;;;;5.43;4.37;;;;;;;;;;4992243;28;20209;-55
2022/06/17 02:46:34;;;;;;;7.47;4.80;;;;;;;;;;4992178;28;20198;-55
2022/06/17 02:49:02;;;;;;;5.87;5.00;;;;;;;;;;4991966;28;20223;-55
2022/06/17 02:51:29;;;;;;;5.23;4.47;;;;;;;;;;4992210;28;20246;-55
2022/06/17 02:53:56;;;;;;;7.00;4.57;;;;;;;;;;4992031;28;20594;-55
2022/06/17 02:56:25;;;;;;;9.43;5.17;;;;;;;;;;4992088;28;20205;-55
2022/06/17 02:58:55;;;;;;;9.53;4.37;;;;;;;;;;4991931;28;20194;-55
2022/06/17 03:01:22;;;;;;;5.40;4.50;;;;;;;;;;4992062;28;20285;-55
2022/06/17 03:03:50;;;;;;;4.87;4.37;;;;;;;;;;4991911;28;20202;-55
2022/06/17 03:06:19;;;;;;;5.70;4.60;;;;;;;;;;4991964;28;20198;-55
2022/06/17 03:08:46;;;;;;;5.53;4.87;;;;;;;;;;4991847;28;20222;-56
2022/06/17 03:11:13;;;;;;;6.70;4.83;;;;;;;;;;4992521;28;20252;-55
2022/06/17 03:13:41;;;;;;;5.30;4.80;;;;;;;;;;4995758;28;20206;-55
2022/06/17 03:16:10;;;;;;;8.33;5.03;;;;;;;;;;4995653;28;20281;-55
2022/06/17 03:18:36;;;;;;;5.73;5.00;;;;;;;;;;4995757;28;20666;-54
2022/06/17 03:21:02;;;;;;;5.60;5.00;;;;;;;;;;4995440;28;20688;-55
2022/06/17 03:23:33;;;;;;;5.20;4.70;;;;;;;;;;4995723;28;20245;-55
2022/06/17 03:26:00;;;;;;;8.80;4.77;;;;;;;;;;4995517;28;20229;-55
2022/06/17 03:28:29;;;;;;;8.13;5.20;;;;;;;;;;4995429;28;20341;-55
2022/06/17 03:30:58;;;;;;;5.60;5.10;;;;;;;;;;4995112;28;20292;-55
2022/06/17 03:33:26;;;;;;;5.80;5.20;;;;;;;;;;4995394;28;20224;-55
2022/06/17 03:35:54;;;;;;;5.30;4.80;;;;;;;;;;4995456;28;20202;-55
2022/06/17 03:38:24;;;;;;;5.90;4.97;;;;;;;;;;4995285;28;20198;-55
2022/06/17 03:40:54;;;;;;;6.00;5.07;;;;;;;;;;4994986;28;20285;-55
2022/06/17 03:43:22;;;;;;;6.27;5.60;;;;;;;;;;4995284;28;20206;-55
2022/06/17 03:45:51;;;;;;;7.57;5.40;;;;;;;;;;4995218;28;20195;-55
2022/06/17 03:48:23;;;;;;;6.50;5.33;;;;;;;;;;4995178;28;20296;-55
2022/06/17 03:50:49;;;;;;;5.37;4.93;;;;;;;;;;4994635;28;20210;-55
2022/06/17 03:53:21;;;;;;;5.93;5.40;;;;;;;;;;4995060;28;20202;-55
2022/06/17 03:55:47;;;;;;;8.20;5.23;;;;;;;;;;4994813;28;20194;-55
2022/06/17 03:58:16;;;;;;;6.80;5.50;;;;;;;;;;4994885;28;20277;-55
2022/06/17 04:00:44;;;;;;;6.20;5.60;;;;;;;;;;4994625;28;20206;-55
2022/06/17 04:03:12;;;;;;;7.37;5.53;;;;;;;;;;4994834;28;20225;-55
2022/06/17 04:05:39;;;;;;;7.23;5.33;;;;;;;;;;4994733;28;20249;-55
2022/06/17 04:08:05;;;;;;;6.67;5.33;;;;;;;;;;4994468;28;20277;-55
2022/06/17 04:10:32;;;;;;;8.77;5.20;;;;;;;;;;4994569;28;20206;-55
2022/06/17 04:12:58;;;;;;;7.63;5.80;;;;;;;;;;4994621;28;20199;-55
2022/06/17 04:15:31;;;;;;;5.47;4.97;;;;;;;;;;4994528;28;20202;-55
2022/06/17 04:17:57;;;;;;;6.13;5.53;;;;;;;;;;4994324;28;20232;-55
2022/06/17 04:20:29;;;;;;;10.17;5.80;;;;;;;;;;4994709;28;20732;-55
2022/06/17 04:22:57;;;;;;;5.77;5.17;;;;;;;;;;4993601;28;20199;-55
2022/06/17 04:25:28;;;;;;;6.87;5.20;;;;;;;;;;4994421;28;20207;-55
2022/06/17 04:27:59;;;;;;;6.20;5.50;;;;;;;;;;4994115;28;20218;-55
2022/06/17 04:30:27;;;;;;;5.87;5.30;;;;;;;;;;4994105;28;20242;-55
2022/06/17 04:32:56;;;;;;;6.17;5.43;;;;;;;;;;4994349;28;20569;-55
2022/06/17 04:35:22;;;;;;;5.83;4.90;;;;;;;;;;4994191;28;20195;-55
2022/06/17 04:37:48;;;;;;;7.50;5.47;;;;;;;;;;4994201;28;20205;-55
2022/06/17 04:40:19;;;;;;;5.83;5.23;;;;;;;;;;4994133;28;20214;-55
2022/06/17 04:42:45;;;;;;;5.77;5.27;;;;;;;;;;4994211;28;20554;-55
2022/06/17 04:45:17;;;;;;;5.97;5.00;;;;;;;;;;4993909;28;20199;-55
2022/06/17 04:47:43;;;;;;;7.00;5.00;;;;;;;;;;4993953;28;20254;-55
2022/06/17 04:50:13;;;;;;;5.20;4.70;;;;;;;;;;4993940;28;20201;-54
2022/06/17 04:52:41;;;;;;;6.07;4.83;;;;;;;;;;4994048;28;20206;-55
2022/06/17 04:55:13;;;;;;;7.03;5.03;;;;;;;;;;4993637;28;20202;-54
2022/06/17 04:57:39;;;;;;;5.77;5.17;;;;;;;;;;4993829;28;20209;-54
2022/06/17 05:00:06;;;;;;;5.30;4.80;;;;;;;;;;4993752;28;20309;-54
2022/06/17 05:02:33;;;;;;;5.00;4.50;;;;;;;;;;4993745;28;20612;-55
2022/06/17 05:05:00;;;;;;;6.10;5.57;;;;;;;;;;4993549;28;20757;-55
2022/06/17 05:07:30;;;;;;;6.67;4.83;;;;;;;;;;4993756;28;20225;-55
2022/06/17 05:09:59;;;;;;;5.80;5.10;;;;;;;;;;4993394;28;20217;-55
2022/06/17 05:12:26;;;;;;;6.80;5.20;;;;;;;;;;4993455;28;20298;-55
2022/06/17 05:14:54;;;;;;;8.13;4.97;;;;;;;;;;4992878;28;20199;-55
2022/06/17 05:17:20;;;;;;;5.10;4.60;;;;;;;;;;4992877;28;20198;-55
2022/06/17 05:19:48;;;;;;;5.60;4.60;;;;;;;;;;4991372;28;20201;-55
2022/06/17 05:22:20;;;;;;;5.37;4.60;;;;;;;;;;4993231;28;20214;-55
2022/06/17 05:24:47;;;;;;;6.00;4.97;;;;;;;;;;4993283;28;20220;-55
2022/06/17 05:27:13;;;;;;;5.27;4.60;;;;;;;;;;4993255;28;20642;-55
2022/06/17 05:29:39;;;;;;;6.93;5.07;;;;;;;;;;4992931;28;20234;-54
2022/06/17 05:32:05;;;;;;;7.13;4.83;;;;;;;;;;4993277;28;20213;-55
2022/06/17 05:34:31;;;;;;;5.13;4.73;;;;;;;;;;4992849;28;20194;-55
2022/06/17 05:36:57;;;;;;;6.20;4.83;;;;;;;;;;4992933;28;20202;-55
2022/06/17 05:39:24;;;;;;;6.60;5.00;;;;;;;;;;4993209;28;20194;-54
2022/06/17 05:41:51;;;;;;;4.97;4.57;;;;;;;;;;4992863;28;20222;-56
2022/06/17 05:44:17;;;;;;;5.47;4.70;;;;;;;;;;4992999;28;20206;-55
2022/06/17 05:46:43;;;;;;;6.10;4.40;;;;;;;;;;4992723;28;20248;-55
2022/06/17 05:49:09;;;;;;;4.90;4.37;;;;;;;;;;4992383;28;20316;-55
2022/06/17 05:51:35;;;;;;;6.97;4.47;;;;;;;;;;4992978;28;20281;-55
2022/06/17 05:54:02;;;;;;;6.00;4.20;;;;;;;;;;4990980;28;20207;-55
2022/06/17 05:56:28;;;;;;;8.53;4.20;;;;;;;;;;4992943;28;20198;-55
2022/06/17 05:58:55;;;;;;;5.33;3.57;;;;;;;;;;4992864;28;20673;-55
2022/06/17 06:01:21;;;;;;;4.37;3.97;;;;;;;;;;4992452;28;20194;-55
2022/06/17 06:03:47;;;;;;;5.30;4.00;;;;;;;;;;4992564;28;20225;-55
2022/06/17 06:06:13;;;;;;;6.33;4.03;;;;;;;;;;4992144;28;20668;-55
2022/06/17 06:08:39;;;;;;;6.53;4.03;;;;;;;;;;4992286;28;20764;-55
2022/06/17 06:11:07;;;;;;;7.07;3.90;;;;;;;;;;4992450;28;20293;-55
2022/06/17 06:13:33;;;;;;;4.63;3.60;;;;;;;;;;4992392;28;20212;-55
2022/06/17 06:16:01;;;;;;;3.53;3.13;;;;;;;;;;4992479;28;20295;-55
2022/06/17 06:18:30;;;;;;;6.37;3.23;;;;;;;;;;4992466;28;20221;-55
2022/06/17 06:20:56;;;;;;;4.80;3.37;;;;;;;;;;4991945;28;20202;-55
2022/06/17 06:23:22;;;;;;;3.60;3.23;;;;;;;;;;4992226;28;20207;-54
2022/06/17 06:25:48;;;;;;;4.03;3.27;;;;;;;;;;4991756;28;20219;-54
2022/06/17 06:28:16;;;;;;;5.53;2.97;;;;;;;;;;4991462;28;20282;-54
2022/06/17 06:30:42;;;;;;;3.80;2.80;;;;;;;;;;4991914;28;20240;-54
2022/06/17 06:33:10;;;;;;;4.70;2.70;;;;;;;;;;4991787;28;20276;-54
2022/06/17 06:35:37;;;;;;;3.20;2.90;;;;;;;;;;4992049;28;20214;-54
2022/06/17 06:38:04;;;;;;;3.60;2.93;;;;;;;;;;4992204;28;20208;-54
2022/06/17 06:40:30;;;;;;;7.03;3.33;;;;;;;;;;4991862;28;20289;-55
2022/06/17 06:42:56;;;;;;;3.63;2.60;;;;;;;;;;4991715;28;20248;-54
2022/06/17 06:45:24;;;;;;;7.27;3.47;;;;;;;;;;4991918;28;20202;-54
2022/06/17 06:47:50;;;;;;;6.30;2.60;;;;;;;;;;4997727;28;20589;-53
2022/06/17 06:50:19;;;;;;;6.83;2.93;;;;;;;;;;4998448;28;20254;-54
2022/06/17 06:52:45;;;;;;;3.43;2.60;;;;;;;;;;4998526;28;20304;-54
2022/06/17 06:55:11;;;;;;;3.90;2.57;;;;;;;;;;4998117;28;20357;-54
2022/06/17 06:57:49;;;;;;;5.63;2.70;;;;;;;;;;4998520;28;20204;-54
2022/06/17 07:00:16;;;;;;;4.13;2.60;;;;;;;;;;4998087;28;20206;-54
2022/06/17 07:02:42;;;;;;;3.33;2.20;;;;;;;;;;4998362;28;20201;-55
2022/06/17 07:05:08;;;;;;;4.67;2.77;;;;;;;;;;4997857;28;20202;-55
2022/06/17 07:07:36;;;;;;;3.73;2.60;;;;;;;;;;4998221;28;20194;-54
2022/06/17 07:10:02;;;;;;;5.83;2.40;;;;;;;;;;4998290;28;20206;-55
2022/06/17 07:12:28;;;;;;;2.87;2.30;;;;;;;;;;4997965;28;20624;-55
2022/06/17 07:14:54;;;;;;;4.63;2.40;;;;;;;;;;4997975;28;20198;-54
2022/06/17 07:17:20;;;;;;;5.17;2.50;;;;;;;;;;4997973;28;20202;-54
2022/06/17 07:19:46;;;;;;;3.33;2.30;;;;;;;;;;4998203;28;20194;-54
2022/06/17 07:22:12;;;;;;;3.23;2.10;;;;;;;;;;4998151;28;20652;-54
2022/06/17 07:24:39;;;;;;;4.97;2.60;;;;;;;;;;4997906;28;20213;-54
2022/06/17 07:27:05;;;;;;;4.07;2.10;;;;;;;;;;4998022;28;20230;-54
2022/06/17 07:29:31;;;;;;;3.10;2.30;;;;;;;;;;4997713;28;20245;-54
2022/06/17 07:31:59;;;;;;;4.30;2.20;;;;;;;;;;4998083;28;20225;-56
2022/06/17 07:34:25;;;;;;;3.10;2.17;;;;;;;;;;4998260;28;20208;-52
2022/06/17 07:39:54;;;;;;;4.00;2.07;;;;;;;;;;4998165;28;20204;-56
2022/06/17 07:42:22;;;;;;;2.67;2.10;;;;;;;;;;4997960;28;20272;-56
2022/06/17 07:44:48;;;;;;;2.73;2.07;;;;;;;;;;4997656;28;20258;-55
2022/06/17 07:47:15;;;;;;;3.33;2.27;;;;;;;;;;4997684;28;20205;-54
2022/06/17 07:49:41;;;;;;;4.27;2.33;;;;;;;;;;4997688;28;20326;-55
2022/06/17 07:52:07;;;;;;;3.07;2.17;;;;;;;;;;4997629;28;20209;-55
2022/06/17 07:54:33;;;;;;;2.20;1.90;;;;;;;;;;4997734;28;20190;-54
2022/06/17 07:56:59;;;;;;;2.47;2.10;;;;;;;;;;4997406;28;20200;-55
2022/06/17 07:59:26;;;;;;;2.23;1.80;;;;;;;;;;4994807;28;20202;-54
2022/06/17 08:01:52;;;;;;;2.90;1.90;;;;;;;;;;4994828;28;20230;-54
2022/06/17 08:04:18;;;;;;;2.77;2.10;;;;;;;;;;4994377;28;20669;-55
2022/06/17 08:06:50;;;;;;;3.03;2.40;;;;;;;;;;4994683;28;20202;-55
2022/06/17 08:09:16;;;;;;;2.73;2.13;;;;;;;;;;4994683;28;20226;-55
2022/06/17 08:11:42;;;;;;;6.43;2.60;;;;;;;;;;4994560;28;20234;-55
2022/06/17 08:14:08;;;;;;;2.83;2.20;;;;;;;;;;4994275;28;20203;-55
2022/06/17 08:16:36;;;;;;;3.30;2.43;;;;;;;;;;4994346;28;20254;-55
2022/06/17 08:19:04;;;;;;;3.03;2.20;;;;;;;;;;4993976;28;20267;-55
2022/06/17 08:21:30;;;;;;;4.20;2.43;;;;;;;;;;4994541;28;20209;-55
2022/06/17 08:23:56;;;;;;;6.27;2.70;;;;;;;;;;4994034;28;20302;-55
2022/06/17 08:26:22;;;;;;;2.57;2.20;;;;;;;;;;4994056;28;20230;-55
2022/06/17 08:28:48;;;;;;;4.23;2.33;;;;;;;;;;4994282;28;20231;-55
2022/06/17 08:31:14;;;;;;;3.73;2.10;;;;;;;;;;4993412;28;20297;-55
2022/06/17 08:33:42;;;;;;;4.73;2.20;;;;;;;;;;4994018;28;20211;-55
2022/06/17 08:36:09;;;;;;;5.23;2.27;;;;;;;;;;4993622;28;20204;-55
2022/06/17 08:38:38;;;;;;;4.03;2.20;;;;;;;;;;4990870;28;20558;-56
2022/06/17 08:41:09;;;;;;;5.23;2.70;;;;;;;;;;4994115;28;20256;-55
2022/06/17 08:43:44;;;;;;;5.27;2.43;;;;;;;;;;4994180;28;20240;-55
2022/06/17 08:46:14;;;;;;;4.87;2.40;;;;;;;;;;4994164;28;20196;-56
2022/06/17 08:48:49;;;;;;;4.57;2.40;;;;;;;;;;4994373;28;20645;-56
2022/06/17 08:51:22;;;;;;;4.93;2.17;;;;;;;;;;4994157;28;20205;-55
2022/06/17 08:54:05;;;;;;;4.07;2.20;;;;;;;;;;4994008;28;20206;-56
2022/06/17 08:56:35;;;;;;;4.33;2.40;;;;;;;;;;4993805;28;20214;-56
2022/06/17 08:59:13;;;;;;;3.57;2.20;;;;;;;;;;4993379;28;20692;-56
2022/06/17 09:01:44;;;;;;;5.30;2.13;;;;;;;;;;4993740;28;20208;-56
2022/06/17 09:04:20;;;;;;;3.80;2.20;;;;;;;;;;4993405;28;20202;-56
2022/06/17 09:06:49;;;;;;;3.47;2.43;;;;;;;;;;4993473;28;20301;-55
2022/06/17 09:09:21;;;;;;;2.73;2.00;;;;;;;;;;4992678;28;20280;-55
2022/06/17 09:11:52;;;;;;;2.77;2.10;;;;;;;;;;4993291;28;20198;-55
2022/06/17 09:14:27;;;;;;;3.53;1.90;;;;;;;;;;4993153;28;20209;-55
2022/06/17 09:16:58;;;;;;;3.17;2.17;;;;;;;;;;4991147;28;20735;-55
2022/06/17 09:19:27;;;;;;;4.50;2.07;;;;;;;;;;4974281;28;20203;-54
2022/06/17 09:21:53;;;;;;;6.57;2.40;;;;;;;;;;4973966;28;20199;-53
2022/06/17 09:24:22;;;;;;;3.67;2.13;;;;;;;;;;4973873;28;20222;-53
2022/06/17 09:26:50;;;;;;;5.53;2.20;;;;;;;;;;4973679;28;20256;-54
2022/06/17 09:29:20;;;;;;;3.80;2.47;;;;;;;;;;4973382;28;20234;-54
2022/06/17 09:31:49;;;;;;;2.67;2.00;;;;;;;;;;4973944;28;20673;-53
2022/06/17 09:34:16;;;;;;;3.43;2.10;;;;;;;;;;4973209;28;20300;-53
2022/06/17 09:36:46;;;;;;;3.73;2.30;;;;;;;;;;4973367;28;20216;-53
2022/06/17 09:39:14;;;;;;;4.97;2.33;;;;;;;;;;4973437;28;20229;-52
2022/06/17 09:41:43;;;;;;;3.57;2.13;;;;;;;;;;4973655;28;20294;-52
2022/06/17 09:44:12;;;;;;;3.93;2.27;;;;;;;;;;4973464;28;20575;-55
2022/06/17 09:46:39;;;;;;;3.17;2.30;;;;;;;;;;4973399;28;20252;-56
2022/06/17 09:49:08;;;;;;;4.53;2.30;;;;;;;;;;4973292;28;20234;-57
2022/06/17 09:51:37;;;;;;;2.23;1.97;;;;;;;;;;4973655;28;20202;-56
2022/06/17 09:54:07;;;;;;;2.97;2.20;;;;;;;;;;4973319;28;20239;-56
2022/06/17 09:56:37;;;;;;;3.67;2.20;;;;;;;;;;4973066;28;20301;-56
2022/06/17 09:59:13;;;;;;;3.07;2.53;;;;;;;;;;4973125;28;20194;-56
2022/06/17 10:01:39;;;;;;;5.30;2.40;;;;;;;;;;4973211;28;20221;-56
2022/06/17 10:04:08;;;;;;;2.97;2.10;;;;;;;;;;4973185;28;20228;-56
2022/06/17 10:06:40;;;;;;;2.60;2.03;;;;;;;;;;4973025;28;20285;-56
2022/06/17 10:09:14;;;;;;;6.30;2.40;;;;;;;;;;4972796;28;20727;-56
2022/06/17 10:11:43;;;;;;;5.13;2.40;;;;;;;;;;4971233;28;20210;-59
2022/06/17 10:14:20;;;;;;;3.70;2.20;;;;;;;;;;4972622;28;20202;-59
2022/06/17 10:19:37;;;;;;;3.70;2.20;;;;;;;;;;4972736;28;20277;-65
2022/06/17 10:22:09;;;;;;;4.00;2.20;;;;;;;;;;4971881;28;20281;-55
2022/06/17 10:24:42;;;;;;;4.97;2.47;;;;;;;;;;4973014;28;20216;-55
2022/06/17 10:27:16;;;;;;;3.17;2.10;;;;;;;;;;4972564;28;20261;-56
2022/06/17 10:29:52;;;;;;;3.07;2.37;;;;;;;;;;4972145;28;20600;-56
2022/06/17 10:32:18;;;;;;;5.03;2.20;;;;;;;;;;4972943;28;20205;-56
2022/06/17 10:34:53;;;;;;;2.60;2.30;;;;;;;;;;4972797;28;20205;-55
2022/06/17 10:37:19;;;;;;;4.57;2.27;;;;;;;;;;4972296;28;20937;-55
2022/06/17 10:39:47;;;;;;;3.10;2.10;;;;;;;;;;4972879;28;20618;-56
2022/06/17 10:42:15;;;;;;;3.73;2.07;;;;;;;;;;4972519;28;20224;-55
2022/06/17 10:44:44;;;;;;;2.73;2.00;;;;;;;;;;4972506;28;20249;-55
2022/06/17 10:47:16;;;;;;;4.57;2.20;;;;;;;;;;4972526;28;20199;-56
2022/06/17 10:49:45;;;;;;;2.67;2.00;;;;;;;;;;4972758;28;20598;-55
2022/06/17 10:52:15;;;;;;;4.97;2.50;;;;;;;;;;4972573;28;20275;-55
2022/06/17 10:54:42;;;;;;;3.00;2.20;;;;;;;;;;4972561;28;20261;-56
2022/06/17 10:57:11;;;;;;;3.37;2.13;;;;;;;;;;4972385;28;20835;-56
2022/06/17 10:59:39;;;;;;;4.13;2.17;;;;;;;;;;4972564;28;20264;-55
2022/06/17 11:02:06;;;;;;;3.87;2.30;;;;;;;;;;4972730;28;20210;-56
2022/06/17 11:04:34;;;;;;;5.33;2.17;;;;;;;;;;4972481;28;20235;-55
2022/06/17 11:07:02;;;;;;;4.07;2.03;;;;;;;;;;4972573;28;20210;-56
2022/06/17 11:09:29;;;;;;;3.07;1.90;;;;;;;;;;4972327;28;20226;-55
2022/06/17 11:12:10;;;;;;;3.43;2.10;;;;;;;;;;4972376;28;20290;-56
2022/06/17 11:14:39;;;;;;;2.60;1.93;;;;;;;;;;4972476;28;20198;-55
2022/06/17 11:17:20;;;;;;;2.33;1.97;;;;;;;;;;4972497;28;20637;-56
2022/06/17 11:19:47;;;;;;;3.90;1.90;;;;;;;;;;4972522;28;20203;-55
2022/06/17 11:22:18;;;;;;;2.50;2.30;;;;;;;;;;4972311;28;20658;-55
2022/06/17 11:24:50;;;;;;;2.70;1.90;;;;;;;;;;4972574;28;20209;-55
2022/06/17 11:27:23;;;;;;;3.73;2.10;;;;;;;;;;4972415;28;20637;-55
2022/06/17 11:29:51;;;;;;;3.07;2.10;;;;;;;;;;4971784;28;20249;-55
2022/06/17 11:32:27;;;;;;;2.93;2.20;;;;;;;;;;4972804;28;20199;-55
2022/06/17 11:34:54;;;;;;;2.73;2.10;;;;;;;;;;4976001;28;20614;-56
2022/06/17 11:37:21;;;;;;;2.00;1.80;;;;;;;;;;4975193;28;20285;-56
2022/06/17 11:39:47;;;;;;;5.00;2.17;;;;;;;;;;4976106;28;20550;-56
2022/06/17 11:42:15;;;;;;;3.90;2.43;;;;;;;;;;4975988;28;20223;-55
2022/06/17 11:44:48;;;;;;;3.90;1.80;;;;;;;;;;4975894;28;20290;-55
2022/06/17 11:47:18;;;;;;;3.43;2.10;;;;;;;;;;4975468;28;20668;-56
2022/06/17 11:49:55;;;;;;;3.90;2.00;;;;;;;;;;4973913;28;20231;-56
2022/06/17 11:52:26;;;;;;;2.57;1.90;;;;;;;;;;4975037;28;20299;-56
2022/06/17 11:54:53;;;;;;;2.87;1.97;;;;;;;;;;4975694;28;20579;-56
2022/06/17 11:57:21;;;;;;;4.13;2.13;;;;;;;;;;4975351;28;20199;-55
2022/06/17 11:59:48;;;;;;;3.03;2.00;;;;;;;;;;4975374;28;20243;-56
2022/06/17 12:02:15;;;;;;;3.60;2.07;;;;;;;;;;4975520;28;20693;-56
2022/06/17 12:04:44;;;;;;;4.70;1.70;;;;;;;;;;4975294;28;20195;-56
2022/06/17 12:07:20;;;;;;;3.10;2.03;;;;;;;;;;4975307;28;20207;-55
2022/06/17 12:09:48;;;;;;;3.63;2.20;;;;;;;;;;4975065;28;20237;-55
2022/06/17 12:12:16;;;;;;;2.53;1.90;;;;;;;;;;4975155;28;20250;-55
2022/06/17 12:14:46;;;;;;;3.53;2.00;;;;;;;;;;4975308;28;20203;-55
2022/06/17 12:17:13;;;;;;;3.10;2.10;;;;;;;;;;4975463;28;20208;-55
2022/06/17 12:19:39;;;;;;;4.17;2.30;;;;;;;;;;4974688;28;20227;-55
2022/06/17 12:22:10;;;;;;;2.60;2.07;;;;;;;;;;4974913;28;20247;-55
2022/06/17 12:24:40;;;;;;;6.63;1.90;;;;;;;;;;4974937;28;20574;-55
2022/06/17 12:27:12;;;;;;;2.40;1.97;;;;;;;;;;4974731;28;20270;-55
2022/06/17 12:29:42;;;;;;;4.53;2.10;;;;;;;;;;4974683;28;20294;-55
2022/06/17 12:32:14;;;;;;;3.83;1.90;;;;;;;;;;4974860;28;20205;-55
2022/06/17 12:34:45;;;;;;;2.67;2.10;;;;;;;;;;4974630;28;20634;-55
2022/06/17 12:37:16;;;;;;;3.97;2.00;;;;;;;;;;4974797;28;20570;-55
2022/06/17 12:39:46;;;;;;;3.60;2.00;;;;;;;;;;4974559;28;20302;-55
2022/06/17 12:42:17;;;;;;;2.77;1.90;;;;;;;;;;4973857;28;20212;-55
2022/06/17 12:44:50;;;;;;;3.33;2.10;;;;;;;;;;4973670;28;20200;-55
2022/06/17 12:47:18;;;;;;;1.83;1.73;;;;;;;;;;4974508;28;20250;-55
2022/06/17 12:55:26;;;;;;;2.87;2.10;;;;;;;;;;4974219;28;20198;-55
2022/06/17 12:58:00;;;;;;;2.00;1.80;;;;;;;;;;4974159;28;20562;-55
2022/06/17 13:00:28;;;;;;;3.13;2.00;;;;;;;;;;4974315;28;20248;-55
2022/06/17 13:03:02;;;;;;;5.17;2.27;;;;;;;;;;4974322;28;20227;-55
2022/06/17 13:05:34;;;;;;;4.93;2.00;;;;;;;;;;4974315;28;20214;-55
2022/06/17 13:08:08;;;;;;;4.63;2.10;;;;;;;;;;4974106;28;20207;-55
2022/06/17 13:10:41;;;;;;;2.83;1.93;;;;;;;;;;4974202;28;20207;-55
2022/06/17 13:13:10;;;;;;;4.10;2.30;;;;;;;;;;4974211;28;20253;-55
2022/06/17 13:15:38;;;;;;;3.80;2.17;;;;;;;;;;4974046;28;20202;-56
2022/06/17 13:18:06;;;;;;;2.47;1.80;;;;;;;;;;4974054;28;20198;-55
2022/06/17 13:20:35;;;;;;;2.60;2.20;;;;;;;;;;4973726;28;20211;-55
2022/06/17 13:23:05;;;;;;;3.23;1.70;;;;;;;;;;4974033;28;20271;-56
2022/06/17 13:25:35;;;;;;;2.47;1.77;;;;;;;;;;4974052;28;20242;-56
2022/06/17 13:28:06;;;;;;;2.07;1.70;;;;;;;;;;4974089;28;20207;-56
2022/06/17 13:30:34;;;;;;;2.00;1.80;;;;;;;;;;4973735;28;20246;-56
2022/06/17 13:33:03;;;;;;;1.90;1.60;;;;;;;;;;4973714;28;20203;-55
2022/06/17 13:35:30;;;;;;;2.13;1.70;;;;;;;;;;4973725;28;20203;-56
2022/06/17 13:37:58;;;;;;;2.70;1.90;;;;;;;;;;4973682;28;20206;-56
2022/06/17 13:40:26;;;;;;;2.67;1.93;;;;;;;;;;4973398;28;20194;-56
2022/06/17 13:42:56;;;;;;;3.83;1.87;;;;;;;;;;4973659;28;20218;-56
2022/06/17 13:45:26;;;;;;;2.53;2.10;;;;;;;;;;4973643;28;20213;-56
2022/06/17 13:47:59;;;;;;;3.70;1.90;;;;;;;;;;4973632;28;20249;-56
2022/06/17 13:50:30;;;;;;;2.53;1.80;;;;;;;;;;4973433;28;20714;-56
2022/06/17 13:52:59;;;;;;;2.13;1.77;;;;;;;;;;4973537;28;20208;-56
2022/06/17 13:55:31;;;;;;;2.23;1.80;;;;;;;;;;4973213;28;20220;-56
2022/06/17 13:58:01;;;;;;;2.10;1.60;;;;;;;;;;4967923;28;20213;-58
2022/06/17 14:00:30;;;;;;;3.63;1.90;;;;;;;;;;4990529;28;20519;-58
2022/06/17 14:02:57;;;;;;;3.67;1.70;;;;;;;;;;4992898;28;20280;-57
2022/06/17 14:05:25;;;;;;;3.47;1.73;;;;;;;;;;4992391;28;20277;-55
2022/06/17 14:07:59;;;;;;;2.47;1.73;;;;;;;;;;4992496;28;20693;-57
2022/06/17 14:10:32;;;;;;;5.87;1.70;;;;;;;;;;4992247;28;20230;-57
2022/06/17 14:13:00;;;;;;;6.30;2.10;;;;;;;;;;4992310;28;20739;-56
2022/06/17 14:15:28;;;;;;;3.77;1.57;;;;;;;;;;4992326;28;20206;-58
2022/06/17 14:17:57;;;;;;;2.30;1.60;;;;;;;;;;4992253;28;20208;-58
2022/06/17 14:20:32;;;;;;;1.97;1.77;;;;;;;;;;4992332;28;20201;-57
2022/06/17 14:23:03;;;;;;;3.30;1.63;;;;;;;;;;4992142;28;20200;-58
2022/06/17 14:25:44;;;;;;;2.67;1.80;;;;;;;;;;4990943;28;20410;-57
2022/06/17 14:28:25;;;;;;;3.08;1.88;;;;;;;;;;4991094;28;20501;-58
2022/06/17 14:31:08;;;;;;;2.60;1.40;;;;;;;;;;4991914;28;20250;-57
2022/06/17 14:33:41;;;;;;;2.97;1.47;;;;;;;;;;4992025;28;20216;-57
2022/06/17 14:36:09;;;;;;;2.93;1.30;;;;;;;;;;4992227;28;20222;-58
2022/06/17 14:38:36;;;;;;;1.57;1.30;;;;;;;;;;4991899;28;20208;-56
2022/06/17 14:43:55;;;;;;;2.10;1.40;;;;;;;;;;4992070;28;20258;-59
2022/06/17 14:46:22;;;;;;;3.17;1.50;;;;;;;;;;4991988;28;20245;-57
2022/06/17 14:48:49;;;;;;;2.13;1.60;;;;;;;;;;4991936;28;20257;-57
2022/06/17 14:51:36;;;;;;;1.63;1.53;;;;;;;;;;4992007;28;20199;-58
2022/06/17 14:54:03;;;;;;;4.03;1.50;;;;;;;;;;4991855;28;20193;-58
2022/06/17 14:56:41;;;;;;;1.60;1.50;;;;;;;;;;4991858;28;20306;-57
2022/06/17 14:59:16;;;;;;;1.50;1.33;;;;;;;;;;4991682;28;20658;-57
2022/06/17 15:01:46;;;;;;;2.20;1.70;;;;;;;;;;4991602;28;20300;-57
2022/06/17 15:04:14;;;;;;;3.23;1.70;;;;;;;;;;4991930;28;20213;-58
2022/06/17 15:06:46;;;;;;;2.10;1.33;;;;;;;;;;4991970;28;20217;-57